createdAt,value
2022-12-15T00:02:04.110Z,85.66
2022-12-15T00:04:53.913Z,85.61
2022-12-15T00:07:44.091Z,85.47
2022-12-15T00:10:34.203Z,85.76
2022-12-15T00:13:32.363Z,85.91
2022-12-15T00:16:23.981Z,85.81
2022-12-15T00:19:13.783Z,85.75
2022-12-15T00:22:03.483Z,86.13
2022-12-15T00:24:53.301Z,86.13
2022-12-15T00:27:43.395Z,86.46
2022-12-15T00:30:33.245Z,86.18
2022-12-15T00:33:30.866Z,86.25
2022-12-15T00:36:21.283Z,86.36
2022-12-15T00:38:52.594Z,87.01
2022-12-15T00:41:23.881Z,86.81
2022-12-15T00:43:55.147Z,87.23
2022-12-15T00:46:44.943Z,87.30
2022-12-15T00:49:35.111Z,86.74
2022-12-15T00:52:25.100Z,87.41
2022-12-15T00:55:15.380Z,87.61
2022-12-15T00:58:05.090Z,87.47
2022-12-15T01:00:54.936Z,87.43
2022-12-15T01:03:45.222Z,88.10
2022-12-15T01:06:37.144Z,87.90
2022-12-15T01:09:29.220Z,88.13
2022-12-15T01:12:19.061Z,88.32
2022-12-15T01:15:08.849Z,88.19
2022-12-15T01:17:58.831Z,87.86
2022-12-15T01:20:34.394Z,88.41
2022-12-15T01:23:05.811Z,88.08
2022-12-15T01:25:38.301Z,87.94
2022-12-15T01:28:09.576Z,88.21
2022-12-15T01:30:40.826Z,87.90
2022-12-15T01:33:14.192Z,87.93
2022-12-15T01:35:45.766Z,87.93
2022-12-15T01:38:17.052Z,87.62
2022-12-15T01:40:57.968Z,87.86
2022-12-15T01:43:33.183Z,87.28
2022-12-15T01:46:22.068Z,87.22
2022-12-15T01:49:14.532Z,87.64
2022-12-15T01:51:49.949Z,87.21
2022-12-15T01:54:53.919Z,87.24
2022-12-15T01:57:28.176Z,87.17
2022-12-15T02:00:03.293Z,86.93
2022-12-15T02:02:40.421Z,87.14
2022-12-15T02:05:11.814Z,87.02
2022-12-15T02:07:43.197Z,86.96
2022-12-15T02:10:14.607Z,87.03
2022-12-15T02:13:08.957Z,86.79
2022-12-15T02:15:51.044Z,86.68
2022-12-15T02:18:32.278Z,86.63
2022-12-15T02:21:14.011Z,86.69
2022-12-15T02:24:19.072Z,86.86
2022-12-15T02:27:13.242Z,86.79
2022-12-15T02:30:06.993Z,86.65
2022-12-15T02:32:54.672Z,87.24
2022-12-15T02:35:55.293Z,86.45
2022-12-15T02:38:36.895Z,86.76
2022-12-15T02:41:40.509Z,86.66
2022-12-15T02:44:18.078Z,86.74
2022-12-15T02:47:17.732Z,86.65
2022-12-15T02:50:15.559Z,86.50
2022-12-15T02:53:20.974Z,87.00
2022-12-15T02:56:14.159Z,87.18
2022-12-15T02:58:59.991Z,87.08
2022-12-15T03:01:40.014Z,86.69
2022-12-15T03:04:12.919Z,87.11
2022-12-15T03:06:44.239Z,86.79
2022-12-15T03:09:15.500Z,86.41
2022-12-15T03:11:46.848Z,86.92
2022-12-15T03:14:18.366Z,86.53
2022-12-15T03:16:49.760Z,86.45
2022-12-15T03:19:21.728Z,86.74
2022-12-15T03:21:53.131Z,86.74
2022-12-15T03:24:24.478Z,86.94
2022-12-15T03:26:56.645Z,86.63
2022-12-15T03:29:27.972Z,86.56
2022-12-15T03:31:59.293Z,86.62
2022-12-15T03:34:30.700Z,86.63
2022-12-15T03:37:01.976Z,86.56
2022-12-15T03:39:33.299Z,86.65
2022-12-15T03:42:04.793Z,87.02
2022-12-15T03:44:36.040Z,86.76
2022-12-15T03:47:07.335Z,87.17
2022-12-15T03:49:38.604Z,87.03
2022-12-15T03:52:09.872Z,87.05
2022-12-15T03:54:41.126Z,87.01
2022-12-15T03:57:12.397Z,86.87
2022-12-15T03:59:43.741Z,86.79
2022-12-15T04:02:15.206Z,86.80
2022-12-15T04:04:46.899Z,87.00
2022-12-15T04:07:18.182Z,86.57
2022-12-15T04:09:49.487Z,86.91
2022-12-15T04:12:20.847Z,86.90
2022-12-15T04:14:53.953Z,87.09
2022-12-15T04:17:25.228Z,86.58
2022-12-15T04:20:11.654Z,86.80
2022-12-15T04:22:45.999Z,87.15
2022-12-15T04:25:37.689Z,87.12
2022-12-15T04:28:29.668Z,87.04
2022-12-15T04:31:26.067Z,86.99
2022-12-15T04:34:19.521Z,87.53
2022-12-15T04:37:12.337Z,87.33
2022-12-15T04:40:08.640Z,87.14
2022-12-15T04:43:03.864Z,87.50
2022-12-15T04:45:53.722Z,86.80
2022-12-15T04:48:43.720Z,87.80
2022-12-15T04:51:33.768Z,87.67
2022-12-15T04:54:34.963Z,87.53
2022-12-15T04:57:24.974Z,87.09
2022-12-15T05:00:14.577Z,87.73
2022-12-15T05:03:04.400Z,87.65
2022-12-15T05:05:54.291Z,87.58
2022-12-15T05:08:44.351Z,87.14
2022-12-15T05:11:34.495Z,87.30
2022-12-15T05:14:24.571Z,87.63
2022-12-15T05:17:14.239Z,87.53
2022-12-15T05:20:04.268Z,87.03
2022-12-15T05:22:54.079Z,87.75
2022-12-15T05:25:44.243Z,87.20
2022-12-15T05:28:34.137Z,87.73
2022-12-15T05:31:25.759Z,88.10
2022-12-15T05:34:04.694Z,87.82
2022-12-15T05:36:37.959Z,87.81
2022-12-15T05:39:09.243Z,87.55
2022-12-15T05:41:40.601Z,87.73
2022-12-15T05:44:14.315Z,87.38
2022-12-15T05:46:46.187Z,87.54
2022-12-15T05:49:18.297Z,87.98
2022-12-15T05:51:49.839Z,88.02
2022-12-15T05:54:21.104Z,87.81
2022-12-15T05:56:52.837Z,87.74
2022-12-15T05:59:24.229Z,87.59
2022-12-15T06:01:55.561Z,87.35
2022-12-15T06:04:26.974Z,87.85
2022-12-15T06:06:58.371Z,87.90
2022-12-15T06:09:29.757Z,87.94
2022-12-15T06:12:01.096Z,88.11
2022-12-15T06:14:32.440Z,87.85
2022-12-15T06:17:03.967Z,87.81
2022-12-15T06:19:35.346Z,87.75
2022-12-15T06:22:06.666Z,87.42
2022-12-15T06:24:38.440Z,87.54
2022-12-15T06:27:09.860Z,87.52
2022-12-15T06:29:41.299Z,87.85
2022-12-15T06:32:12.770Z,87.74
2022-12-15T06:34:44.147Z,87.48
2022-12-15T06:37:15.512Z,87.68
2022-12-15T06:39:46.829Z,87.62
2022-12-15T06:42:18.183Z,87.36
2022-12-15T06:44:50.043Z,87.70
2022-12-15T06:47:21.666Z,88.13
2022-12-15T06:49:52.926Z,87.51
2022-12-15T06:52:24.177Z,87.92
2022-12-15T06:54:55.794Z,88.10
2022-12-15T06:57:27.094Z,87.72
2022-12-15T06:59:58.510Z,88.01
2022-12-15T07:02:32.621Z,88.55
2022-12-15T07:05:04.297Z,87.65
2022-12-15T07:07:35.598Z,88.11
2022-12-15T07:10:08.394Z,87.90
2022-12-15T07:12:39.676Z,87.92
2022-12-15T07:15:11.397Z,88.23
2022-12-15T07:17:42.925Z,88.73
2022-12-15T07:20:14.313Z,88.17
2022-12-15T07:22:50.416Z,88.24
2022-12-15T07:25:22.286Z,88.30
2022-12-15T07:27:53.609Z,88.59
2022-12-15T07:30:24.983Z,88.53
2022-12-15T07:32:56.379Z,88.37
2022-12-15T07:35:27.680Z,88.32
2022-12-15T07:38:00.168Z,88.54
2022-12-15T07:40:31.468Z,88.86
2022-12-15T07:43:02.832Z,88.63
2022-12-15T07:45:34.237Z,88.29
2022-12-15T07:48:05.844Z,88.89
2022-12-15T07:50:39.764Z,88.04
2022-12-15T07:53:11.093Z,88.02
2022-12-15T07:56:05.438Z,88.86
2022-12-15T07:58:33.826Z,88.23
2022-12-15T08:01:08.012Z,88.45
2022-12-15T08:03:40.620Z,88.52
2022-12-15T08:06:14.773Z,88.64
2022-12-15T08:08:50.463Z,88.29
2022-12-15T08:11:22.894Z,88.66
2022-12-15T08:14:03.582Z,88.30
2022-12-15T08:16:36.583Z,88.99
2022-12-15T08:19:12.636Z,88.94
2022-12-15T08:21:48.461Z,88.91
2022-12-15T08:24:19.772Z,88.64
2022-12-15T08:26:51.084Z,89.33
2022-12-15T08:29:50.266Z,89.29
2022-12-15T08:32:14.361Z,89.08
2022-12-15T08:34:47.640Z,89.34
2022-12-15T08:37:18.981Z,89.76
2022-12-15T08:39:50.396Z,89.93
2022-12-15T08:42:21.677Z,89.50
2022-12-15T08:44:53.028Z,89.48
2022-12-15T08:47:24.307Z,90.36
2022-12-15T08:49:55.672Z,89.66
2022-12-15T08:52:27.005Z,90.13
2022-12-15T08:54:58.362Z,90.45
2022-12-15T08:57:29.732Z,90.18
2022-12-15T09:00:01.037Z,90.57
2022-12-15T09:02:32.405Z,90.98
2022-12-15T09:05:06.171Z,90.60
2022-12-15T09:07:37.582Z,91.30
2022-12-15T09:10:09.036Z,91.19
2022-12-15T09:12:40.305Z,91.58
2022-12-15T09:15:11.682Z,91.75
2022-12-15T09:17:43.695Z,92.32
2022-12-15T09:20:17.844Z,92.37
2022-12-15T09:22:50.373Z,92.16
2022-12-15T09:25:21.863Z,92.74
2022-12-15T09:27:53.234Z,92.23
2022-12-15T09:30:24.597Z,92.50
2022-12-15T09:32:56.108Z,92.83
2022-12-15T09:35:28.228Z,93.13
2022-12-15T09:37:59.660Z,92.90
2022-12-15T09:40:31.081Z,93.07
2022-12-15T09:43:32.846Z,93.34
2022-12-15T09:46:06.449Z,93.61
2022-12-15T09:48:41.620Z,93.85
2022-12-15T09:51:18.201Z,93.10
2022-12-15T09:53:57.311Z,93.22
2022-12-15T09:56:49.933Z,93.27
2022-12-15T09:59:28.231Z,93.93
2022-12-15T10:02:18.443Z,93.47
2022-12-15T10:05:09.756Z,94.65
2022-12-15T10:07:46.426Z,94.03
2022-12-15T10:10:47.186Z,94.90
2022-12-15T10:13:24.673Z,94.31
2022-12-15T10:16:16.145Z,94.01
2022-12-15T10:19:01.916Z,94.33
2022-12-15T10:21:34.432Z,95.04
2022-12-15T10:24:37.333Z,95.37
2022-12-15T10:27:30.938Z,95.55
2022-12-15T10:30:05.824Z,95.76
2022-12-15T10:32:56.597Z,95.25
2022-12-15T10:35:34.485Z,94.80
2022-12-15T10:38:13.478Z,95.44
2022-12-15T10:43:46.903Z,96.10
2022-12-15T10:46:21.931Z,95.58
2022-12-15T10:48:59.457Z,95.45
2022-12-15T10:51:36.880Z,96.08
2022-12-15T10:54:09.496Z,95.21
2022-12-15T10:56:55.077Z,95.85
2022-12-15T10:59:33.544Z,95.79
2022-12-15T11:02:34.038Z,95.90
2022-12-15T11:05:18.278Z,96.19
2022-12-15T11:07:52.638Z,95.73
2022-12-15T11:10:28.548Z,95.90
2022-12-15T11:13:21.249Z,95.67
2022-12-15T11:15:55.081Z,96.18
2022-12-15T11:18:42.585Z,95.39
2022-12-15T11:21:27.908Z,95.89
2022-12-15T11:24:18.236Z,96.26
2022-12-15T11:27:08.834Z,95.50
2022-12-15T11:29:51.651Z,96.13
2022-12-15T11:32:27.081Z,96.06
2022-12-15T11:34:58.935Z,96.03
2022-12-15T11:37:36.794Z,95.81
2022-12-15T11:40:23.650Z,96.09
2022-12-15T11:43:29.271Z,95.90
2022-12-15T11:46:20.079Z,96.18
2022-12-15T11:49:06.509Z,96.23
2022-12-15T11:52:03.027Z,96.36
2022-12-15T11:54:43.610Z,96.36
2022-12-15T11:57:44.171Z,96.07
2022-12-15T12:00:19.986Z,96.23
2022-12-15T12:03:04.008Z,96.36
2022-12-15T12:06:02.971Z,95.85
2022-12-15T12:08:53.003Z,96.05
2022-12-15T12:11:32.077Z,95.59
2022-12-15T12:14:37.923Z,95.80
2022-12-15T12:17:38.424Z,95.75
2022-12-15T12:20:41.728Z,96.03
2022-12-15T12:23:22.433Z,96.32
2022-12-15T12:26:03.449Z,96.03
2022-12-15T12:28:48.631Z,95.42
2022-12-15T12:31:56.498Z,95.55
2022-12-15T12:35:31.772Z,95.93
2022-12-15T12:38:04.728Z,95.79
2022-12-15T12:40:56.936Z,95.94
2022-12-15T12:43:42.236Z,95.23
2022-12-15T12:46:23.793Z,95.63
2022-12-15T12:49:13.311Z,95.81
2022-12-15T12:51:51.600Z,95.06
2022-12-15T12:54:41.460Z,95.77
2022-12-15T12:57:12.796Z,95.56
2022-12-15T12:59:49.862Z,95.37
2022-12-15T13:02:21.468Z,95.56
2022-12-15T13:04:59.941Z,95.30
2022-12-15T13:07:38.579Z,95.33
2022-12-15T13:10:21.426Z,95.33
2022-12-15T13:12:59.156Z,95.23
2022-12-15T13:15:30.447Z,95.32
2022-12-15T13:18:16.105Z,95.05
2022-12-15T13:20:50.686Z,95.32
2022-12-15T13:23:22.157Z,95.37
2022-12-15T13:25:56.525Z,95.47
2022-12-15T13:43:27.190Z,97.98
2022-12-15T13:46:01.755Z,97.75
2022-12-15T13:48:51.451Z,97.12
2022-12-15T13:51:31.515Z,96.62
2022-12-15T13:54:17.942Z,96.07
2022-12-15T13:56:54.804Z,96.63
2022-12-15T13:59:40.069Z,96.13
2022-12-15T14:02:25.005Z,95.66
2022-12-15T14:05:17.397Z,95.69
2022-12-15T14:07:56.438Z,95.98
2022-12-15T14:10:41.532Z,96.00
2022-12-15T14:13:26.259Z,95.99
2022-12-15T14:16:15.196Z,96.00
2022-12-15T14:19:10.277Z,95.49
2022-12-15T14:21:51.860Z,95.91
2022-12-15T14:24:38.505Z,95.88
2022-12-15T14:27:22.370Z,96.04
2022-12-15T14:30:19.300Z,96.04
2022-12-15T14:33:12.115Z,95.87
2022-12-15T14:35:50.032Z,95.61
2022-12-15T14:38:25.467Z,95.88
2022-12-15T14:40:58.026Z,96.24
2022-12-15T14:43:34.943Z,95.74
2022-12-15T14:46:11.224Z,96.64
2022-12-15T14:49:05.905Z,96.34
2022-12-15T14:51:44.032Z,95.98
2022-12-15T14:54:38.535Z,96.49
2022-12-15T14:57:17.034Z,95.98
2022-12-15T14:59:49.395Z,95.62
2022-12-15T15:02:25.199Z,95.25
2022-12-15T15:03:04.489Z,95.04
2022-12-15T15:04:59.856Z,94.82
2022-12-15T15:07:33.098Z,94.79
2022-12-15T15:10:22.347Z,94.65
2022-12-15T15:12:54.174Z,95.03
2022-12-15T15:15:26.781Z,95.41
2022-12-15T15:17:59.786Z,95.61
2022-12-15T15:20:36.017Z,94.76
2022-12-15T15:23:07.296Z,95.71
2022-12-15T15:26:06.976Z,95.70
2022-12-15T15:28:43.673Z,95.29
2022-12-15T15:31:24.447Z,95.54
2022-12-15T15:33:57.907Z,95.23
2022-12-15T15:36:33.818Z,94.81
2022-12-15T15:39:15.843Z,94.94
2022-12-15T15:41:47.143Z,94.46
2022-12-15T15:44:18.426Z,94.50
2022-12-15T15:46:51.973Z,94.31
2022-12-15T15:49:24.435Z,94.03
2022-12-15T15:51:56.643Z,94.25
2022-12-15T15:54:35.202Z,94.63
2022-12-15T15:57:06.533Z,94.88
2022-12-15T15:59:42.056Z,94.44
2022-12-15T16:02:14.456Z,94.30
2022-12-15T16:04:45.954Z,94.49
2022-12-15T16:07:25.513Z,94.12
2022-12-15T16:09:56.956Z,94.34
2022-12-15T16:12:35.765Z,94.31
2022-12-15T16:15:18.443Z,93.76
2022-12-15T16:17:49.952Z,94.04
2022-12-15T16:20:23.554Z,94.24
2022-12-15T16:22:59.164Z,94.23
2022-12-15T16:25:50.297Z,93.64
2022-12-15T16:28:25.102Z,94.00
2022-12-15T16:30:58.593Z,94.27
2022-12-15T16:33:30.041Z,93.87
2022-12-15T16:36:01.974Z,94.36
2022-12-15T16:38:33.827Z,94.44
2022-12-15T16:41:07.938Z,94.10
2022-12-15T16:43:44.522Z,93.58
2022-12-15T16:46:20.142Z,94.05
2022-12-15T16:48:51.846Z,93.88
2022-12-15T16:51:39.408Z,93.93
2022-12-15T16:54:20.767Z,94.42
2022-12-15T16:56:54.064Z,93.39
2022-12-15T16:59:35.077Z,94.21
2022-12-15T17:02:35.826Z,93.80
2022-12-15T17:05:07.709Z,93.05
2022-12-15T17:07:40.696Z,93.06
2022-12-15T17:10:25.569Z,94.36
2022-12-15T17:13:05.838Z,94.10
2022-12-15T17:15:39.835Z,94.08
2022-12-15T17:18:15.277Z,93.51
2022-12-15T17:20:46.925Z,94.00
2022-12-15T17:23:22.466Z,93.92
2022-12-15T17:26:21.054Z,93.77
2022-12-15T17:28:45.266Z,93.64
2022-12-15T17:31:18.984Z,93.67
2022-12-15T17:33:50.805Z,94.02
2022-12-15T17:36:25.072Z,94.19
2022-12-15T17:38:58.431Z,93.62
2022-12-15T17:44:36.904Z,93.78
2022-12-15T17:47:09.564Z,93.63
2022-12-15T17:49:41.425Z,94.02
2022-12-15T17:52:34.702Z,93.86
2022-12-15T17:55:31.790Z,93.58
2022-12-15T17:58:16.899Z,93.60
2022-12-15T18:00:52.888Z,93.74
2022-12-15T18:03:28.151Z,93.66
2022-12-15T18:05:59.573Z,93.76
2022-12-15T18:08:33.670Z,93.39
2022-12-15T18:11:05.177Z,94.00
2022-12-15T18:13:37.042Z,93.35
2022-12-15T18:16:08.661Z,93.76
2022-12-15T18:18:39.984Z,93.57
2022-12-15T18:21:16.509Z,93.80
2022-12-15T18:23:47.858Z,93.41
2022-12-15T18:26:19.260Z,93.93
2022-12-15T18:28:50.585Z,93.12
2022-12-15T18:31:27.131Z,93.65
2022-12-15T18:34:04.292Z,93.95
2022-12-15T18:36:36.341Z,93.36
2022-12-15T18:39:18.547Z,93.21
2022-12-15T18:41:50.728Z,94.19
2022-12-15T18:44:25.240Z,93.22
2022-12-15T18:46:56.799Z,93.63
2022-12-15T18:49:28.281Z,93.63
2022-12-15T18:51:59.572Z,93.75
2022-12-15T18:54:30.906Z,93.20
2022-12-15T18:57:02.254Z,93.55
2022-12-15T18:59:33.671Z,93.68
2022-12-15T19:02:05.063Z,93.64
2022-12-15T19:04:36.479Z,92.76
2022-12-15T19:07:11.131Z,93.70
2022-12-15T19:09:42.483Z,92.92
2022-12-15T19:12:17.648Z,93.29
2022-12-15T19:14:51.227Z,93.55
2022-12-15T19:17:42.448Z,93.89
2022-12-15T19:20:37.469Z,93.64
2022-12-15T19:23:08.791Z,93.27
2022-12-15T19:25:41.593Z,93.67
2022-12-15T19:28:19.521Z,93.64
2022-12-15T19:30:52.049Z,93.69
2022-12-15T19:33:24.136Z,93.41
2022-12-15T19:35:57.356Z,93.44
2022-12-15T19:38:31.948Z,93.46
2022-12-15T19:41:03.684Z,93.25
2022-12-15T19:43:35.751Z,93.51
2022-12-15T19:46:17.972Z,93.72
2022-12-15T19:48:49.451Z,93.90
2022-12-15T19:51:24.094Z,93.20
2022-12-15T19:53:56.423Z,92.87
2022-12-15T19:56:29.137Z,93.58
2022-12-15T19:59:01.475Z,93.48
2022-12-15T20:01:33.034Z,93.60
2022-12-15T20:04:05.674Z,93.12
2022-12-15T20:06:38.415Z,93.46
2022-12-15T20:09:15.329Z,93.43
2022-12-15T20:11:46.906Z,93.48
2022-12-15T20:14:18.316Z,93.34
2022-12-15T20:16:52.547Z,93.69
2022-12-15T20:19:23.971Z,94.02
2022-12-15T20:21:55.354Z,94.20
2022-12-15T20:24:27.097Z,94.06
2022-12-15T20:26:58.876Z,93.85
2022-12-15T20:29:31.869Z,94.00
2022-12-15T20:32:12.526Z,94.03
2022-12-15T20:34:44.123Z,93.23
2022-12-15T20:37:28.977Z,93.54
2022-12-15T20:40:00.543Z,94.02
2022-12-15T20:42:32.923Z,93.79
2022-12-15T20:45:04.906Z,93.57
2022-12-15T20:47:39.782Z,93.64
2022-12-15T20:50:41.166Z,94.06
2022-12-15T20:53:21.258Z,94.33
2022-12-15T20:55:54.104Z,94.56
2022-12-15T20:58:31.295Z,94.26
2022-12-15T21:01:16.814Z,94.13
2022-12-15T21:03:51.957Z,94.76
2022-12-15T21:06:25.236Z,94.32
2022-12-15T21:08:56.902Z,94.59
2022-12-15T21:11:32.614Z,94.30
2022-12-15T21:14:04.050Z,94.45
2022-12-15T21:16:35.547Z,94.37
2022-12-15T21:19:23.118Z,94.27
2022-12-15T21:21:55.403Z,94.08
2022-12-15T21:24:28.563Z,94.36
2022-12-15T21:27:01.438Z,94.94
2022-12-15T21:29:34.159Z,94.51
2022-12-15T21:32:05.651Z,94.17
2022-12-15T21:34:37.427Z,94.28
2022-12-15T21:37:23.574Z,94.20
2022-12-15T21:39:55.607Z,93.68
2022-12-15T21:42:27.222Z,93.72
2022-12-15T21:44:58.614Z,93.52
2022-12-15T21:47:52.032Z,93.54
2022-12-15T21:50:23.927Z,93.21
2022-12-15T21:52:55.909Z,93.56
2022-12-15T21:55:28.487Z,92.90
2022-12-15T21:57:59.874Z,92.80
2022-12-15T22:00:31.239Z,93.32
2022-12-15T22:03:02.698Z,92.55
2022-12-15T22:05:34.164Z,92.79
2022-12-15T22:08:35.247Z,92.93
2022-12-15T22:11:19.743Z,93.26
2022-12-15T22:13:53.173Z,92.98
2022-12-15T22:16:27.240Z,93.24
2022-12-15T22:19:00.826Z,93.15
2022-12-15T22:21:32.215Z,92.79
2022-12-15T22:24:03.714Z,93.30
2022-12-15T22:26:37.528Z,93.02
2022-12-15T22:29:15.555Z,92.97
2022-12-15T22:31:48.473Z,92.99
2022-12-15T22:34:22.853Z,93.59
2022-12-15T22:36:55.032Z,93.68
2022-12-15T22:39:26.624Z,93.61
2022-12-15T22:41:58.752Z,93.96
2022-12-15T22:44:37.157Z,93.98
2022-12-15T22:47:10.599Z,94.29
2022-12-15T22:49:42.509Z,93.53
2022-12-15T22:52:18.611Z,93.72
2022-12-15T22:54:50.122Z,93.82
2022-12-15T22:57:27.050Z,94.22
2022-12-15T23:00:03.071Z,93.92
2022-12-15T23:02:38.841Z,94.56
2022-12-15T23:05:12.789Z,94.22
2022-12-15T23:07:45.157Z,94.64
2022-12-15T23:10:37.320Z,95.20
2022-12-15T23:13:08.700Z,94.45
2022-12-15T23:15:58.796Z,95.43
2022-12-15T23:18:30.358Z,94.70
2022-12-15T23:21:02.490Z,94.51
2022-12-15T23:23:34.312Z,95.02
2022-12-15T23:26:06.082Z,94.42
2022-12-15T23:28:37.994Z,94.51
2022-12-15T23:31:10.102Z,94.57
2022-12-15T23:33:41.731Z,95.52
2022-12-15T23:36:13.443Z,95.33
2022-12-15T23:38:44.913Z,94.86
2022-12-15T23:41:17.634Z,95.15
2022-12-15T23:43:49.096Z,95.43
2022-12-15T23:46:21.182Z,94.98
2022-12-15T23:48:52.589Z,95.16
2022-12-15T23:51:26.528Z,95.37
2022-12-15T23:53:57.908Z,95.07
2022-12-15T23:56:30.331Z,94.89
2022-12-15T23:59:01.806Z,94.82
